createdAt,value
2018-11-12T00:01:23.257Z,8.30
2018-11-12T00:03:52.088Z,8.40
2018-11-12T00:06:20.840Z,8.30
2018-11-12T00:08:49.707Z,8.40
2018-11-12T00:11:18.446Z,8.40
2018-11-12T00:13:47.259Z,8.40
2018-11-12T00:16:15.980Z,8.50
2018-11-12T00:18:44.828Z,8.50
2018-11-12T00:21:13.683Z,8.40
2018-11-12T00:23:42.518Z,8.40
2018-11-12T00:26:11.337Z,8.30
2018-11-12T00:28:44.987Z,8.30
2018-11-12T00:31:13.917Z,8.30
2018-11-12T00:33:42.600Z,8.20
2018-11-12T00:36:11.324Z,8.20
2018-11-12T00:38:40.207Z,8.20
2018-11-12T00:41:08.957Z,8.20
2018-11-12T00:43:37.645Z,8.30
2018-11-12T00:46:06.400Z,8.30
2018-11-12T00:48:35.110Z,8.30
2018-11-12T00:51:03.885Z,8.40
2018-11-12T00:53:32.607Z,8.50
2018-11-12T00:56:01.391Z,8.60
2018-11-12T00:58:31.142Z,8.60
2018-11-12T01:00:59.933Z,8.70
2018-11-12T01:03:28.887Z,8.70
2018-11-12T01:05:57.556Z,8.70
2018-11-12T01:08:26.295Z,8.70
2018-11-12T01:10:54.995Z,8.80
2018-11-12T01:13:27.585Z,8.80
2018-11-12T01:15:56.311Z,8.90
2018-11-12T01:18:24.928Z,8.90
2018-11-12T01:20:53.584Z,9.00
2018-11-12T01:23:21.936Z,9.00
2018-11-12T01:25:50.288Z,9.00
2018-11-12T01:28:18.669Z,9.00
2018-11-12T01:30:47.076Z,9.00
2018-11-12T01:33:15.447Z,9.00
2018-11-12T01:35:43.848Z,9.00
2018-11-12T01:38:12.245Z,9.00
2018-11-12T01:40:40.624Z,9.00
2018-11-12T01:43:09.024Z,9.00
2018-11-12T01:45:37.408Z,9.00
2018-11-12T01:48:05.793Z,9.00
2018-11-12T01:50:34.174Z,9.10
2018-11-12T01:53:02.580Z,9.10
2018-11-12T01:55:31.020Z,9.00
2018-11-12T01:57:59.450Z,9.00
2018-11-12T02:00:27.815Z,9.00
2018-11-12T02:02:56.232Z,9.00
2018-11-12T02:05:24.599Z,9.00
2018-11-12T02:07:52.970Z,9.00
2018-11-12T02:10:21.334Z,8.90
2018-11-12T02:12:49.714Z,8.90
2018-11-12T02:15:19.355Z,8.90
2018-11-12T02:17:48.252Z,8.90
2018-11-12T02:20:17.952Z,8.80
2018-11-12T02:22:47.153Z,8.80
2018-11-12T02:25:16.024Z,8.80
2018-11-12T02:27:44.411Z,8.80
2018-11-12T02:30:15.739Z,8.80
2018-11-12T02:32:44.120Z,8.80
2018-11-12T02:35:12.564Z,8.80
2018-11-12T02:37:41.106Z,8.80
2018-11-12T02:40:11.311Z,8.80
2018-11-12T02:42:40.075Z,8.80
2018-11-12T02:45:09.255Z,8.70
2018-11-12T02:47:37.837Z,8.70
2018-11-12T02:50:07.072Z,8.80
2018-11-12T02:52:35.460Z,8.80
2018-11-12T02:55:03.935Z,8.70
2018-11-12T02:57:32.379Z,8.70
2018-11-12T03:00:00.773Z,8.70
2018-11-12T03:02:29.148Z,8.60
2018-11-12T03:04:57.562Z,8.60
2018-11-12T03:07:25.996Z,8.60
2018-11-12T03:09:54.355Z,8.50
2018-11-12T03:12:22.738Z,8.50
2018-11-12T03:14:51.127Z,8.50
2018-11-12T03:17:19.532Z,8.50
2018-11-12T03:19:47.940Z,8.50
2018-11-12T03:22:16.365Z,8.50
2018-11-12T03:24:44.732Z,8.40
2018-11-12T03:27:13.148Z,8.50
2018-11-12T03:29:41.512Z,8.50
2018-11-12T03:32:09.928Z,8.40
2018-11-12T03:34:38.313Z,8.30
2018-11-12T03:37:06.716Z,8.30
2018-11-12T03:39:35.240Z,8.40
2018-11-12T03:42:03.634Z,8.40
2018-11-12T03:44:32.135Z,8.40
2018-11-12T03:47:00.547Z,8.40
2018-11-12T03:49:29.014Z,8.40
2018-11-12T03:51:57.427Z,8.40
2018-11-12T03:54:25.842Z,8.50
2018-11-12T03:56:54.288Z,8.50
2018-11-12T03:59:22.684Z,8.50
2018-11-12T04:01:51.077Z,8.50
2018-11-12T04:04:19.504Z,8.50
2018-11-12T04:06:47.976Z,8.50
2018-11-12T04:09:16.386Z,8.50
2018-11-12T04:11:45.379Z,8.50
2018-11-12T04:14:14.135Z,8.40
2018-11-12T04:16:43.728Z,8.40
2018-11-12T04:19:12.158Z,8.40
2018-11-12T04:21:40.491Z,8.40
2018-11-12T04:24:08.920Z,8.40
2018-11-12T04:26:37.292Z,8.40
2018-11-12T04:29:05.699Z,8.40
2018-11-12T04:31:34.167Z,8.40
2018-11-12T04:34:02.603Z,8.40
2018-11-12T04:36:30.988Z,8.40
2018-11-12T04:38:59.389Z,8.40
2018-11-12T04:41:27.894Z,8.40
2018-11-12T04:43:56.348Z,8.40
2018-11-12T04:46:24.756Z,8.50
2018-11-12T04:48:53.145Z,8.40
2018-11-12T04:51:21.552Z,8.40
2018-11-12T04:53:49.977Z,8.50
2018-11-12T04:56:18.260Z,8.50
2018-11-12T04:58:46.617Z,8.50
2018-11-12T05:01:15.032Z,8.50
2018-11-12T05:03:43.415Z,8.40
2018-11-12T05:06:11.793Z,8.40
2018-11-12T05:08:40.168Z,8.40
2018-11-12T05:11:08.608Z,8.40
2018-11-12T05:13:36.988Z,8.50
2018-11-12T05:16:05.712Z,8.50
2018-11-12T05:18:34.092Z,8.50
2018-11-12T05:21:02.482Z,8.60
2018-11-12T05:23:30.941Z,8.50
2018-11-12T05:25:59.351Z,8.60
2018-11-12T05:28:27.762Z,8.60
2018-11-12T05:30:56.164Z,8.50
2018-11-12T05:33:24.527Z,8.60
2018-11-12T05:35:52.899Z,8.60
2018-11-12T05:38:21.310Z,8.70
2018-11-12T05:40:49.712Z,8.70
2018-11-12T05:43:18.103Z,8.70
2018-11-12T05:45:46.523Z,8.60
2018-11-12T05:48:14.989Z,8.60
2018-11-12T05:50:43.380Z,8.70
2018-11-12T05:53:12.061Z,8.80
2018-11-12T05:55:40.472Z,8.80
2018-11-12T05:58:08.872Z,8.80
2018-11-12T06:00:37.689Z,8.90
2018-11-12T06:03:06.176Z,8.90
2018-11-12T06:05:35.036Z,8.90
2018-11-12T06:08:03.580Z,8.90
2018-11-12T06:10:32.843Z,8.90
2018-11-12T06:13:01.217Z,8.90
2018-11-12T06:15:29.643Z,9.00
2018-11-12T06:17:58.034Z,9.00
2018-11-12T06:20:28.472Z,9.00
2018-11-12T06:22:56.859Z,8.90
2018-11-12T06:25:30.605Z,9.00
2018-11-12T06:27:59.259Z,9.00
2018-11-12T06:30:29.175Z,9.00
2018-11-12T06:32:57.662Z,9.00
2018-11-12T06:35:26.048Z,9.00
2018-11-12T06:37:54.821Z,9.00
2018-11-12T06:40:24.417Z,8.90
2018-11-12T06:42:53.031Z,9.00
2018-11-12T06:45:22.483Z,9.00
2018-11-12T06:47:51.815Z,9.00
2018-11-12T06:50:21.572Z,8.90
2018-11-12T06:52:50.087Z,8.90
2018-11-12T06:55:19.176Z,8.90
2018-11-12T06:57:48.129Z,8.90
2018-11-12T07:00:19.821Z,9.00
2018-11-12T07:02:48.361Z,9.10
2018-11-12T07:05:17.098Z,9.10
2018-11-12T07:07:45.588Z,9.20
2018-11-12T07:10:16.228Z,9.20
2018-11-12T07:12:45.424Z,9.30
2018-11-12T07:15:18.163Z,9.30
2018-11-12T07:17:46.653Z,9.30
2018-11-12T07:20:17.464Z,9.40
2018-11-12T07:22:46.091Z,9.40
2018-11-12T07:25:15.420Z,9.50
2018-11-12T07:27:43.892Z,9.60
2018-11-12T07:30:17.119Z,9.70
2018-11-12T07:32:46.179Z,9.70
2018-11-12T07:35:15.419Z,9.80
2018-11-12T07:37:45.779Z,9.80
2018-11-12T07:40:14.890Z,9.90
2018-11-12T07:42:43.580Z,10.00
2018-11-12T07:45:17.647Z,10.10
2018-11-12T07:47:47.008Z,10.20
2018-11-12T07:50:17.661Z,10.30
2018-11-12T07:52:46.297Z,10.40
2018-11-12T07:55:17.556Z,10.40
2018-11-12T07:57:46.920Z,10.40
2018-11-12T08:00:46.760Z,10.50
2018-11-12T08:03:15.416Z,10.50
2018-11-12T08:05:43.746Z,10.60
2018-11-12T08:08:12.284Z,10.70
2018-11-12T08:10:40.756Z,10.80
2018-11-12T08:13:09.129Z,10.90
2018-11-12T08:15:37.522Z,10.90
2018-11-12T08:18:06.048Z,11.00
2018-11-12T08:20:34.520Z,11.00
2018-11-12T08:23:02.959Z,11.00
2018-11-12T08:25:31.373Z,11.00
2018-11-12T08:27:59.781Z,11.00
2018-11-12T08:30:29.066Z,11.00
2018-11-12T08:32:58.647Z,11.00
2018-11-12T08:35:27.308Z,11.00
2018-11-12T08:37:56.051Z,11.00
2018-11-12T08:40:25.554Z,10.90
2018-11-12T08:42:53.909Z,10.90
2018-11-12T08:45:22.332Z,10.90
2018-11-12T08:47:52.064Z,10.90
2018-11-12T08:50:21.566Z,10.90
2018-11-12T08:52:50.836Z,10.90
2018-11-12T08:55:20.526Z,10.90
2018-11-12T08:57:50.503Z,11.00
2018-11-12T09:00:19.764Z,11.00
2018-11-12T09:02:48.371Z,11.00
2018-11-12T09:05:17.918Z,11.00
2018-11-12T09:07:47.868Z,11.10
2018-11-12T09:10:19.077Z,11.20
2018-11-12T09:12:47.457Z,11.20
2018-11-12T09:15:16.056Z,11.20
2018-11-12T09:17:45.413Z,11.30
2018-11-12T09:20:16.290Z,11.40
2018-11-12T09:22:44.877Z,11.40
2018-11-12T09:25:20.995Z,11.50
2018-11-12T09:27:49.480Z,11.50
2018-11-12T09:30:19.607Z,11.50
2018-11-12T09:32:48.297Z,11.60
2018-11-12T09:35:19.097Z,11.60
2018-11-12T09:37:48.663Z,11.60
2018-11-12T09:40:48.604Z,11.70
2018-11-12T09:43:17.158Z,11.70
2018-11-12T09:45:46.423Z,11.90
2018-11-12T09:48:15.363Z,12.00
2018-11-12T09:50:44.360Z,12.10
2018-11-12T09:53:13.283Z,12.10
2018-11-12T09:55:42.535Z,12.20
2018-11-12T09:58:11.356Z,12.30
2018-11-12T10:00:40.263Z,12.30
2018-11-12T10:03:10.090Z,12.30
2018-11-12T10:05:40.642Z,12.40
2018-11-12T10:08:12.276Z,12.40
2018-11-12T10:10:47.625Z,12.50
2018-11-12T10:13:21.412Z,12.50
2018-11-12T10:15:51.401Z,12.60
2018-11-12T10:18:17.562Z,12.60
2018-11-12T10:20:46.947Z,12.70
2018-11-12T10:23:16.744Z,12.80
2018-11-12T10:25:46.057Z,12.80
2018-11-12T10:28:15.303Z,12.90
2018-11-12T10:30:44.415Z,13.00
2018-11-12T10:33:13.805Z,13.00
2018-11-12T10:35:42.710Z,13.00
2018-11-12T10:38:12.036Z,13.00
2018-11-12T10:40:41.155Z,12.90
2018-11-12T10:43:09.673Z,12.90
2018-11-12T10:45:38.775Z,13.00
2018-11-12T10:48:08.337Z,13.10
2018-11-12T10:50:37.642Z,13.20
2018-11-12T10:53:06.682Z,13.20
2018-11-12T10:55:35.780Z,13.10
2018-11-12T10:58:06.372Z,13.10
2018-11-12T11:00:41.062Z,13.10
2018-11-12T11:03:18.701Z,13.20
2018-11-12T11:05:48.948Z,13.40
2018-11-12T11:08:18.827Z,13.40
2018-11-12T11:10:48.047Z,13.40
2018-11-12T11:13:17.084Z,13.50
2018-11-12T11:15:46.684Z,13.50
2018-11-12T11:18:16.478Z,13.50
2018-11-12T11:20:45.049Z,13.50
2018-11-12T11:23:14.359Z,13.50
2018-11-12T11:25:43.648Z,13.50
2018-11-12T11:28:12.621Z,13.20
2018-11-12T11:30:41.735Z,13.10
2018-11-12T11:33:11.119Z,12.90
2018-11-12T11:35:40.104Z,12.80
2018-11-12T11:38:09.459Z,12.80
2018-11-12T11:40:38.982Z,12.90
2018-11-12T11:43:07.499Z,12.90
2018-11-12T11:45:36.026Z,12.90
2018-11-12T11:48:04.554Z,12.90
2018-11-12T11:50:32.957Z,13.00
2018-11-12T11:53:01.431Z,13.00
2018-11-12T11:55:29.987Z,12.90
2018-11-12T11:57:58.488Z,12.90
2018-11-12T12:00:28.072Z,13.00
2018-11-12T12:02:57.652Z,13.20
2018-11-12T12:05:26.717Z,13.30
2018-11-12T12:07:55.904Z,13.40
2018-11-12T12:10:24.388Z,13.40
2018-11-12T12:12:53.248Z,13.50
2018-11-12T12:15:22.514Z,13.60
2018-11-12T12:17:51.073Z,13.60
2018-11-12T12:20:20.732Z,13.60
2018-11-12T12:22:49.309Z,13.60
2018-11-12T12:25:18.282Z,13.70
2018-11-12T12:27:47.231Z,13.80
2018-11-12T12:30:18.291Z,13.70
2018-11-12T12:32:47.547Z,13.50
2018-11-12T12:35:16.156Z,13.30
2018-11-12T12:37:45.285Z,13.30
2018-11-12T12:40:14.905Z,13.20
2018-11-12T12:42:43.464Z,13.10
2018-11-12T12:45:14.077Z,13.10
2018-11-12T12:47:42.798Z,13.10
2018-11-12T12:50:12.572Z,13.10
2018-11-12T12:52:41.051Z,13.00
2018-11-12T12:55:10.488Z,13.10
2018-11-12T12:57:39.347Z,13.10
2018-11-12T13:00:12.033Z,13.20
2018-11-12T13:02:40.941Z,13.20
2018-11-12T13:05:09.500Z,13.20
2018-11-12T13:07:38.392Z,13.50
2018-11-12T13:10:08.388Z,13.70
2018-11-12T13:12:36.956Z,13.80
2018-11-12T13:15:07.205Z,13.90
2018-11-12T13:17:35.664Z,13.90
2018-11-12T13:20:04.205Z,13.80
2018-11-12T13:22:32.774Z,13.80
2018-11-12T13:25:01.469Z,13.80
2018-11-12T13:27:29.984Z,13.80
2018-11-12T13:29:58.555Z,13.90
2018-11-12T13:32:27.049Z,14.20
2018-11-12T13:34:55.642Z,14.40
2018-11-12T13:37:24.161Z,14.30
2018-11-12T13:39:52.684Z,14.20
2018-11-12T13:42:21.255Z,14.40
2018-11-12T13:44:49.747Z,14.50
2018-11-12T13:47:18.247Z,14.50
2018-11-12T13:49:46.748Z,14.20
2018-11-12T13:52:15.236Z,13.90
2018-11-12T13:54:43.716Z,13.60
2018-11-12T13:57:12.231Z,13.50
2018-11-12T13:59:40.796Z,13.20
2018-11-12T14:02:09.331Z,13.00
2018-11-12T14:04:37.771Z,12.80
2018-11-12T14:07:06.344Z,12.70
2018-11-12T14:09:34.816Z,12.60
2018-11-12T14:12:03.272Z,12.80
2018-11-12T14:14:31.769Z,13.30
2018-11-12T14:17:00.273Z,13.80
2018-11-12T14:19:28.756Z,14.20
2018-11-12T14:21:57.260Z,14.40
2018-11-12T14:24:25.708Z,14.50
2018-11-12T14:26:54.252Z,14.50
2018-11-12T14:29:22.705Z,14.50
2018-11-12T14:31:51.362Z,14.20
2018-11-12T14:34:19.877Z,14.00
2018-11-12T14:36:48.432Z,13.60
2018-11-12T14:39:16.926Z,13.20
2018-11-12T14:41:45.522Z,12.90
2018-11-12T14:44:14.053Z,12.70
2018-11-12T14:46:42.532Z,12.60
2018-11-12T14:49:11.061Z,12.50
2018-11-12T14:51:39.598Z,12.40
2018-11-12T14:54:08.107Z,12.40
2018-11-12T14:56:36.590Z,12.40
2018-11-12T14:59:05.340Z,12.30
2018-11-12T15:01:33.857Z,12.20
2018-11-12T15:04:02.330Z,12.10
2018-11-12T15:06:31.013Z,11.90
2018-11-12T15:09:00.320Z,11.80
2018-11-12T15:11:28.797Z,11.60
2018-11-12T15:13:57.400Z,11.50
2018-11-12T15:16:26.036Z,11.40
2018-11-12T15:18:54.558Z,11.20
2018-11-12T15:21:24.090Z,11.10
2018-11-12T15:23:52.576Z,11.00
2018-11-12T15:26:21.052Z,11.00
2018-11-12T15:28:49.578Z,10.90
2018-11-12T15:31:18.097Z,10.70
2018-11-12T15:33:46.560Z,10.70
2018-11-12T15:36:14.984Z,10.70
2018-11-12T15:38:43.520Z,10.70
2018-11-12T15:41:12.076Z,10.70
2018-11-12T15:43:40.556Z,10.80
2018-11-12T15:46:09.032Z,10.70
2018-11-12T15:48:37.570Z,10.70
2018-11-12T15:51:06.289Z,10.60
2018-11-12T15:53:34.732Z,10.60
2018-11-12T15:56:03.215Z,10.60
2018-11-12T15:58:31.807Z,10.50
2018-11-12T16:01:00.294Z,10.50
2018-11-12T16:03:28.816Z,10.60
2018-11-12T16:05:57.395Z,10.60
2018-11-12T16:08:25.780Z,10.60
2018-11-12T16:10:54.288Z,10.60
2018-11-12T16:13:22.786Z,10.50
2018-11-12T16:15:51.330Z,10.50
2018-11-12T16:18:19.893Z,10.50
2018-11-12T16:20:48.662Z,10.50
2018-11-12T16:23:17.123Z,10.50
2018-11-12T16:25:45.605Z,10.50
2018-11-12T16:28:14.140Z,10.60
2018-11-12T16:30:43.613Z,10.70
2018-11-12T16:33:12.081Z,10.80
2018-11-12T16:38:17.365Z,10.80
2018-11-12T16:40:46.027Z,10.90
2018-11-12T16:43:14.859Z,11.00
2018-11-12T16:45:44.435Z,11.10
2018-11-12T16:48:12.876Z,11.20
2018-11-12T16:50:41.531Z,11.20
2018-11-12T16:53:10.080Z,11.20
2018-11-12T16:55:38.609Z,11.20
2018-11-12T16:58:07.191Z,11.40
2018-11-12T17:00:35.707Z,11.40
2018-11-12T17:03:04.180Z,11.40
2018-11-12T17:05:37.501Z,11.70
2018-11-12T17:08:06.104Z,11.70
2018-11-12T17:10:36.445Z,11.80
2018-11-12T17:13:05.683Z,11.80
2018-11-12T17:15:34.123Z,11.80
2018-11-12T17:18:02.508Z,11.80
2018-11-12T17:20:30.995Z,11.90
2018-11-12T17:22:59.534Z,11.90
2018-11-12T17:25:27.911Z,11.90
2018-11-12T17:28:00.766Z,12.00
2018-11-12T17:30:30.870Z,11.90
2018-11-12T17:33:01.261Z,11.90
2018-11-12T17:35:30.651Z,11.90
2018-11-12T17:37:59.140Z,11.90
2018-11-12T17:40:27.636Z,11.90
2018-11-12T17:42:56.609Z,11.90
2018-11-12T17:45:26.218Z,11.90
2018-11-12T17:48:00.534Z,12.00
2018-11-12T17:50:29.007Z,12.00
2018-11-12T17:52:57.523Z,12.10
2018-11-12T17:55:26.041Z,12.10
2018-11-12T17:57:54.696Z,12.20
2018-11-12T18:00:24.863Z,12.20
2018-11-12T18:02:53.346Z,12.20
2018-11-12T18:05:22.964Z,12.20
2018-11-12T18:07:52.372Z,12.20
2018-11-12T18:10:21.576Z,12.30
2018-11-12T18:12:50.120Z,12.20
2018-11-12T18:15:19.907Z,12.40
2018-11-12T18:17:48.474Z,12.40
2018-11-12T18:20:20.474Z,12.40
2018-11-12T18:22:49.595Z,12.40
2018-11-12T18:25:18.084Z,12.30
2018-11-12T18:27:46.651Z,12.40
2018-11-12T18:30:18.454Z,12.40
2018-11-12T18:32:47.929Z,12.40
2018-11-12T18:35:16.420Z,12.40
2018-11-12T18:37:44.972Z,12.40
2018-11-12T18:40:14.783Z,12.40
2018-11-12T18:42:43.335Z,12.40
2018-11-12T18:45:14.899Z,12.40
2018-11-12T18:47:43.730Z,12.40
2018-11-12T18:50:17.379Z,12.40
2018-11-12T18:52:46.180Z,12.40
2018-11-12T18:55:14.641Z,12.40
2018-11-12T18:57:43.885Z,12.30
2018-11-12T19:00:13.608Z,12.30
2018-11-12T19:02:42.515Z,12.30
2018-11-12T19:05:13.776Z,12.30
2018-11-12T19:07:43.182Z,12.30
2018-11-12T19:10:14.633Z,12.30
2018-11-12T19:12:43.899Z,12.30
2018-11-12T19:15:14.768Z,12.20
2018-11-12T19:17:44.327Z,12.20
2018-11-12T19:20:13.321Z,12.20
2018-11-12T19:22:41.803Z,12.10
2018-11-12T19:25:11.357Z,12.10
2018-11-12T19:27:39.801Z,12.00
2018-11-12T19:30:12.291Z,12.00
2018-11-12T19:32:40.954Z,11.90
2018-11-12T19:35:10.860Z,11.80
2018-11-12T19:37:39.333Z,11.80
2018-11-12T19:40:09.655Z,11.80
2018-11-12T19:42:38.203Z,11.70
2018-11-12T19:45:07.946Z,11.70
2018-11-12T19:47:36.466Z,11.70
2018-11-12T19:50:06.339Z,11.60
2018-11-12T19:52:35.012Z,11.40
2018-11-12T19:55:03.589Z,11.30
2018-11-12T19:57:32.112Z,11.20
2018-11-12T20:00:00.809Z,11.00
2018-11-12T20:02:29.322Z,10.90
2018-11-12T20:04:57.873Z,10.80
2018-11-12T20:07:26.388Z,10.70
2018-11-12T20:09:55.023Z,10.60
2018-11-12T20:12:23.530Z,10.50
2018-11-12T20:14:52.064Z,10.50
2018-11-12T20:17:20.590Z,10.40
2018-11-12T20:19:49.106Z,10.40
2018-11-12T20:22:17.666Z,10.40
2018-11-12T20:24:46.213Z,10.40
2018-11-12T20:27:14.858Z,10.30
2018-11-12T20:29:43.390Z,10.30
2018-11-12T20:32:11.913Z,10.30
2018-11-12T20:34:40.487Z,10.20
2018-11-12T20:37:09.010Z,10.10
2018-11-12T20:39:37.547Z,10.10
2018-11-12T20:42:06.239Z,10.10
2018-11-12T20:44:34.759Z,10.10
2018-11-12T20:47:03.291Z,10.10
2018-11-12T20:49:31.835Z,10.00
2018-11-12T20:52:00.398Z,10.00
2018-11-12T20:54:29.044Z,10.00
2018-11-12T20:56:57.503Z,10.00
2018-11-12T20:59:25.978Z,10.00
2018-11-12T21:01:54.492Z,9.90
2018-11-12T21:04:22.955Z,9.90
2018-11-12T21:06:52.241Z,9.80
2018-11-12T21:09:20.753Z,9.80
2018-11-12T21:11:49.260Z,9.70
2018-11-12T21:14:17.743Z,9.60
2018-11-12T21:16:46.201Z,9.60
2018-11-12T21:19:14.702Z,9.50
2018-11-12T21:21:43.856Z,9.50
2018-11-12T21:24:13.015Z,9.50
2018-11-12T21:26:43.098Z,9.60
2018-11-12T21:29:11.969Z,9.60
2018-11-12T21:31:40.973Z,9.60
2018-11-12T21:34:10.143Z,9.60
2018-11-12T21:36:39.370Z,9.60
2018-11-12T21:39:11.521Z,9.70
2018-11-12T21:41:40.605Z,9.70
2018-11-12T21:44:09.877Z,9.70
2018-11-12T21:46:39.058Z,9.60
2018-11-12T21:49:07.556Z,9.60
2018-11-12T21:51:36.090Z,9.60
2018-11-12T21:54:04.584Z,9.70
2018-11-12T21:56:33.058Z,9.70
2018-11-12T21:59:01.601Z,9.70
2018-11-12T22:01:30.116Z,9.70
2018-11-12T22:03:58.644Z,9.70
2018-11-12T22:06:27.126Z,9.70
2018-11-12T22:08:55.601Z,9.70
2018-11-12T22:11:24.051Z,9.70
2018-11-12T22:13:52.521Z,9.60
2018-11-12T22:16:21.011Z,9.60
2018-11-12T22:18:49.546Z,9.50
2018-11-12T22:21:18.213Z,9.40
2018-11-12T22:23:46.687Z,9.40
2018-11-12T22:26:15.407Z,9.30
2018-11-12T22:28:43.856Z,9.30
2018-11-12T22:31:12.294Z,9.20
2018-11-12T22:33:40.984Z,9.20
2018-11-12T22:36:09.414Z,9.10
2018-11-12T22:38:37.813Z,9.00
2018-11-12T22:41:06.287Z,9.00
2018-11-12T22:43:34.703Z,8.90
2018-11-12T22:46:03.063Z,8.90
2018-11-12T22:48:31.559Z,8.90
2018-11-12T22:51:00.071Z,8.90
2018-11-12T22:53:29.535Z,8.80
2018-11-12T22:55:57.997Z,8.80
2018-11-12T22:58:26.478Z,8.80
2018-11-12T23:00:55.024Z,8.80
2018-11-12T23:03:23.544Z,8.80
2018-11-12T23:05:56.256Z,8.90
2018-11-12T23:08:25.376Z,8.80
2018-11-12T23:10:54.160Z,8.80
2018-11-12T23:13:22.548Z,8.80
2018-11-12T23:15:50.985Z,8.80
2018-11-12T23:18:19.363Z,8.70
2018-11-12T23:20:47.755Z,8.80
2018-11-12T23:23:16.135Z,8.80
2018-11-12T23:25:44.531Z,8.80
2018-11-12T23:28:12.979Z,8.70
2018-11-12T23:30:41.377Z,8.70
2018-11-12T23:33:09.824Z,8.70
2018-11-12T23:35:38.225Z,8.70
2018-11-12T23:38:06.864Z,8.70
2018-11-12T23:40:35.305Z,8.70
2018-11-12T23:43:03.709Z,8.70
2018-11-12T23:45:32.085Z,8.60
2018-11-12T23:48:00.463Z,8.60
2018-11-12T23:50:28.843Z,8.60
2018-11-12T23:52:57.221Z,8.60
2018-11-12T23:55:25.592Z,8.50
2018-11-12T23:57:53.987Z,8.50
